Time;durP1;ratioP1;P1;durP2;ratioP2;P2;SDS_P1;SDS_P2;PMS_P1;PMS_P2;Temp;Humidity;BMP_temperature;BMP_pressure;BME280_temperature;BME280_humidity;BME280_pressure;Samples;Min_cycle;Max_cycle;Signal;HPM_P1;HPM_P2
2023/06/04 00:01:05;;;;;;;9.13;6.88;;;;;;;16.97;67.64;94044.00;4974220;28;20121;-72
2023/06/04 00:03:31;;;;;;;9.95;7.30;;;;;;;17.01;67.52;94023.38;4970443;28;20030;-73
2023/06/04 00:05:56;;;;;;;7.57;6.78;;;;;;;17.17;67.43;94021.50;4966157;28;20041;-72
2023/06/04 00:08:22;;;;;;;7.47;6.55;;;;;;;17.12;66.96;94024.41;4972520;28;20493;-71
2023/06/04 00:10:48;;;;;;;11.15;7.13;;;;;;;17.05;67.40;94029.66;4972271;28;20935;-71
2023/06/04 00:13:14;;;;;;;13.55;8.75;;;;;;;17.10;66.90;94028.59;4973570;28;20039;-73
2023/06/04 00:15:40;;;;;;;10.95;8.38;;;;;;;17.05;67.35;94032.34;4971858;28;20483;-73
2023/06/04 00:18:05;;;;;;;12.18;10.25;;;;;;;17.09;67.32;94029.72;4974650;28;20042;-74
2023/06/04 00:20:31;;;;;;;12.45;10.60;;;;;;;16.99;67.08;94020.28;4975514;28;20042;-73
2023/06/04 00:22:56;;;;;;;14.75;11.50;;;;;;;16.85;67.71;94009.19;4974263;28;20054;-73
2023/06/04 00:25:21;;;;;;;13.05;10.20;;;;;;;16.86;67.73;94018.03;4973991;28;20245;-70
2023/06/04 00:27:47;;;;;;;13.75;9.98;;;;;;;16.92;67.78;94020.09;4975626;28;20488;-73
2023/06/04 00:30:13;;;;;;;11.77;10.27;;;;;;;16.91;67.75;94012.41;4969799;28;20049;-71
2023/06/04 00:32:38;;;;;;;11.32;9.45;;;;;;;16.84;68.10;93996.09;4975805;28;20042;-74
2023/06/04 00:35:04;;;;;;;10.85;9.55;;;;;;;17.03;68.03;94020.34;4976481;28;20088;-73
2023/06/04 00:37:29;;;;;;;12.45;9.60;;;;;;;17.09;67.57;94017.06;4979486;28;20566;-72
2023/06/04 00:39:55;;;;;;;14.20;10.13;;;;;;;17.11;67.56;94017.47;4975237;28;20042;-74
2023/06/04 00:42:20;;;;;;;10.93;9.73;;;;;;;17.05;67.83;94007.38;4976679;28;20034;-73
2023/06/04 00:44:47;;;;;;;13.57;11.50;;;;;;;17.02;67.57;94002.66;4978634;28;20121;-73
2023/06/04 00:47:14;;;;;;;15.25;11.73;;;;;;;17.11;67.61;94020.16;4974666;28;20057;-74
2023/06/04 00:49:41;;;;;;;16.75;12.45;;;;;;;17.10;67.35;94015.94;4978989;28;20137;-73
2023/06/04 00:52:13;;;;;;;15.95;12.73;;;;;;;17.11;67.60;94011.34;4975245;28;20182;-73
2023/06/04 00:54:39;;;;;;;13.38;11.50;;;;;;;17.24;67.24;94017.41;4972584;28;20046;-73
2023/06/04 00:57:05;;;;;;;14.65;11.90;;;;;;;17.07;67.10;94002.41;4974828;28;20034;-73
2023/06/04 00:59:32;;;;;;;13.93;11.82;;;;;;;17.13;67.26;94017.94;4973443;28;20094;-73
2023/06/04 01:02:14;;;;;;;18.55;12.20;;;;;;;17.02;67.60;94000.75;4975941;28;20653;-73
2023/06/04 01:05:00;;;;;;;17.45;13.18;;;;;;;17.05;68.12;94007.38;4976767;28;20108;-75
2023/06/04 01:07:28;;;;;;;15.15;12.57;;;;;;;17.03;68.14;94015.75;4975191;28;20408;-74
2023/06/04 01:09:54;;;;;;;14.73;11.50;;;;;;;17.03;68.31;94013.06;4977223;28;20041;-73
2023/06/04 01:12:20;;;;;;;15.15;13.27;;;;;;;16.84;68.18;93985.38;4974567;28;20493;-72
2023/06/04 01:14:45;;;;;;;15.32;11.98;;;;;;;17.07;68.12;94018.53;4976417;28;20049;-72
2023/06/04 01:17:36;;;;;;;14.68;10.77;;;;;;;17.09;68.08;94013.59;4976142;28;20033;-73
2023/06/04 01:20:20;;;;;;;13.32;10.57;;;;;;;17.11;68.14;94019.41;4966760;28;20488;-72
2023/06/04 01:23:10;;;;;;;13.73;11.10;;;;;;;17.13;67.98;94015.25;4974869;28;20034;-72
2023/06/04 01:25:41;;;;;;;15.40;11.23;;;;;;;16.77;68.74;93985.97;4982253;28;20554;-72
2023/06/04 01:28:08;;;;;;;16.02;12.52;;;;;;;16.87;68.97;94015.00;4976445;28;20046;-72
2023/06/04 01:30:42;;;;;;;13.48;10.77;;;;;;;16.93;68.78;94015.50;4973656;28;20039;-73
2023/06/04 01:33:10;;;;;;;16.08;10.85;;;;;;;17.02;68.39;94022.25;4977349;28;21026;-72
2023/06/04 01:35:36;;;;;;;12.25;10.95;;;;;;;16.92;68.61;94017.41;4975422;28;20044;-73
2023/06/04 01:38:01;;;;;;;13.30;9.98;;;;;;;17.02;68.11;94024.16;4976501;28;20026;-72
2023/06/04 01:40:27;;;;;;;10.35;8.15;;;;;;;16.66;68.62;94023.31;4975807;28;20035;-74
2023/06/04 01:42:53;;;;;;;10.50;6.38;;;;;;;16.46;69.50;94031.59;4976599;28;20635;-74
2023/06/04 01:45:20;;;;;;;8.07;6.72;;;;;;;16.50;69.51;94035.16;4975376;28;20038;-72
2023/06/04 01:47:45;;;;;;;9.50;6.57;;;;;;;16.63;68.61;94023.22;4976092;28;20038;-71
2023/06/04 01:50:11;;;;;;;7.50;5.25;;;;;;;16.62;68.90;94032.41;4976183;28;20049;-72
2023/06/04 01:52:36;;;;;;;9.10;5.53;;;;;;;16.54;68.89;94036.03;4973861;28;20050;-72
2023/06/04 01:55:16;;;;;;;5.22;4.72;;;;;;;16.61;68.48;94025.47;4974650;28;20046;-74
2023/06/04 01:57:43;;;;;;;5.30;4.72;;;;;;;16.50;69.08;94045.91;4973512;28;20041;-72
2023/06/04 02:00:10;;;;;;;8.13;5.43;;;;;;;16.68;68.95;94052.50;4971798;28;20042;-73
2023/06/04 02:02:37;;;;;;;7.25;6.00;;;;;;;16.78;68.62;94041.25;4968756;28;20030;-73
2023/06/04 02:05:04;;;;;;;8.93;6.13;;;;;;;16.75;68.98;94047.31;4974606;28;20034;-73
2023/06/04 02:07:31;;;;;;;7.78;6.18;;;;;;;16.58;69.49;94029.63;4975837;28;20043;-72
2023/06/04 02:09:56;;;;;;;9.82;7.32;;;;;;;16.74;69.05;94045.75;4974545;28;20034;-72
2023/06/04 02:12:21;;;;;;;9.70;7.15;;;;;;;16.67;69.31;94038.28;4975151;28;20293;-71
2023/06/04 02:14:47;;;;;;;7.95;7.15;;;;;;;16.83;69.22;94051.72;4973928;28;20061;-73
2023/06/04 02:17:12;;;;;;;8.85;7.07;;;;;;;16.64;69.60;94046.25;4975276;28;20559;-73
2023/06/04 02:19:44;;;;;;;9.00;7.32;;;;;;;16.47;70.20;94038.53;4975062;28;20061;-72
2023/06/04 02:22:11;;;;;;;7.32;6.60;;;;;;;16.10;71.72;94044.03;4976432;28;20181;-72
2023/06/04 02:24:38;;;;;;;6.93;6.15;;;;;;;15.77;72.44;94043.50;4974691;28;20041;-71
2023/06/04 02:27:05;;;;;;;6.25;5.20;;;;;;;16.09;71.61;94058.56;4973746;28;20070;-73
2023/06/04 02:29:31;;;;;;;5.70;4.45;;;;;;;16.37;70.39;94057.84;4975813;28;20157;-73
2023/06/04 02:31:56;;;;;;;8.48;5.03;;;;;;;16.26;70.02;94052.16;4974836;28;20023;-72
2023/06/04 02:34:23;;;;;;;4.38;2.85;;;;;;;16.05;70.30;94046.97;4972938;28;20042;-73
2023/06/04 02:36:50;;;;;;;4.78;4.07;;;;;;;16.33;69.65;94075.75;4973559;28;20043;-74
2023/06/04 02:39:16;;;;;;;4.05;3.60;;;;;;;16.26;69.64;94071.72;4975368;28;20065;-72
2023/06/04 02:41:42;;;;;;;5.40;3.22;;;;;;;16.15;69.85;94075.22;4975787;28;20070;-72
2023/06/04 02:44:07;;;;;;;4.10;3.42;;;;;;;16.40;68.90;94073.25;4973677;28;20353;-72
2023/06/04 02:46:33;;;;;;;5.18;3.50;;;;;;;16.57;68.45;94070.25;4972947;28;20026;-73
2023/06/04 02:48:58;;;;;;;5.05;3.60;;;;;;;16.39;68.37;94036.78;4973832;28;20096;-72
2023/06/04 02:51:24;;;;;;;3.70;3.30;;;;;;;16.67;68.04;94070.50;4974708;28;20066;-72
2023/06/04 02:53:49;;;;;;;5.90;3.35;;;;;;;16.70;68.00;94077.13;4972993;28;20030;-73
2023/06/04 02:56:15;;;;;;;3.63;3.33;;;;;;;16.71;67.70;94081.38;4973370;28;20041;-72
2023/06/04 02:58:55;;;;;;;5.00;3.30;;;;;;;16.69;67.68;94080.91;4973748;28;20032;-72
2023/06/04 03:01:21;;;;;;;3.17;2.88;;;;;;;16.76;67.42;94086.47;4975449;28;20031;-73
2023/06/04 03:03:47;;;;;;;3.72;3.10;;;;;;;16.60;67.55;94085.69;4972511;28;20396;-72
2023/06/04 03:06:16;;;;;;;4.05;3.03;;;;;;;16.69;67.64;94086.28;4980942;28;20100;-73
2023/06/04 03:08:42;;;;;;;4.15;3.05;;;;;;;16.62;67.41;94080.75;4972349;28;20035;-73
2023/06/04 03:11:08;;;;;;;4.50;3.33;;;;;;;16.71;67.34;94084.84;4974384;28;20105;-73
2023/06/04 03:13:34;;;;;;;3.83;3.42;;;;;;;16.65;67.56;94085.44;4972642;28;20092;-73
2023/06/04 03:16:01;;;;;;;3.72;3.08;;;;;;;16.59;67.54;94079.53;4976060;28;20498;-72
2023/06/04 03:18:29;;;;;;;4.28;3.08;;;;;;;16.61;67.76;94073.81;4972229;28;20030;-72
2023/06/04 03:20:55;;;;;;;2.70;2.50;;;;;;;16.53;67.49;94061.31;4973917;28;20034;-73
2023/06/04 03:23:21;;;;;;;5.55;2.60;;;;;;;16.74;67.51;94086.03;4974955;28;20122;-72
2023/06/04 03:25:48;;;;;;;7.75;3.42;;;;;;;16.58;67.76;94083.31;4972269;28;20370;-74
2023/06/04 03:28:13;;;;;;;5.53;3.35;;;;;;;16.47;68.57;94093.03;4971305;28;20038;-72
2023/06/04 03:30:40;;;;;;;3.20;2.90;;;;;;;16.17;69.33;94087.19;4973575;28;21051;-73
2023/06/04 03:33:06;;;;;;;5.25;2.75;;;;;;;16.03;69.39;94084.09;4974299;28;20396;-73
2023/06/04 03:35:31;;;;;;;4.40;2.58;;;;;;;16.05;69.24;94089.91;4973678;28;20797;-73
2023/06/04 03:37:57;;;;;;;5.80;2.42;;;;;;;15.64;69.45;94031.25;4972968;28;20023;-72
2023/06/04 03:40:22;;;;;;;3.15;2.58;;;;;;;16.17;69.09;94097.91;4975122;28;20100;-72
2023/06/04 03:42:47;;;;;;;4.57;2.40;;;;;;;16.27;68.58;94096.66;4974205;28;20030;-73
2023/06/04 03:45:13;;;;;;;3.88;2.40;;;;;;;16.16;69.25;94107.09;4971668;28;20839;-73
2023/06/04 03:47:39;;;;;;;4.53;2.45;;;;;;;16.26;68.88;94111.97;4977828;28;20038;-72
2023/06/04 03:50:05;;;;;;;5.68;3.17;;;;;;;16.20;69.12;94105.28;4979040;28;20042;-72
2023/06/04 03:52:31;;;;;;;3.95;3.10;;;;;;;16.26;69.22;94119.25;4975706;28;20050;-72
2023/06/04 03:54:56;;;;;;;14.23;5.38;;;;;;;16.13;69.72;94123.88;4977529;28;20426;-73
2023/06/04 03:57:22;;;;;;;7.82;3.10;;;;;;;15.91;70.69;94116.31;4975617;28;20042;-72
2023/06/04 03:59:48;;;;;;;4.03;2.80;;;;;;;15.76;71.10;94117.78;4977385;28;20504;-73
2023/06/04 04:02:13;;;;;;;3.15;2.78;;;;;;;15.22;72.70;94079.72;4973230;28;20065;-72
2023/06/04 04:04:38;;;;;;;3.95;3.10;;;;;;;15.46;73.03;94116.47;4979193;28;20026;-72
2023/06/04 04:07:04;;;;;;;5.07;3.13;;;;;;;15.48;72.63;94118.84;4969576;28;20465;-72
2023/06/04 04:09:29;;;;;;;3.85;3.53;;;;;;;14.86;74.82;94109.19;4977544;28;20545;-72
2023/06/04 04:11:54;;;;;;;3.45;3.15;;;;;;;15.35;74.09;94132.19;4975708;28;20471;-73
2023/06/04 04:14:20;;;;;;;8.20;2.67;;;;;;;15.73;72.39;94121.16;4976010;28;20038;-72
2023/06/04 04:16:47;;;;;;;3.78;3.33;;;;;;;15.96;71.36;94124.13;4977642;28;20033;-72
2023/06/04 04:19:13;;;;;;;4.72;3.60;;;;;;;15.89;71.55;94124.69;4976503;28;20532;-73
2023/06/04 04:21:38;;;;;;;4.80;3.67;;;;;;;15.76;72.06;94122.38;4977457;28;20030;-72
2023/06/04 04:24:04;;;;;;;4.20;3.25;;;;;;;15.99;71.17;94136.84;4976041;28;20077;-73
2023/06/04 04:26:29;;;;;;;5.80;3.40;;;;;;;16.15;70.51;94128.88;4977334;28;20068;-72
2023/06/04 04:28:59;;;;;;;4.20;3.00;;;;;;;16.19;70.65;94133.22;4974987;28;20065;-72
2023/06/04 04:31:26;;;;;;;3.47;3.17;;;;;;;16.19;70.38;94130.53;4976629;28;20138;-72
2023/06/04 04:33:52;;;;;;;6.53;4.05;;;;;;;16.16;70.90;94133.13;4968548;28;20038;-73
2023/06/04 04:36:18;;;;;;;5.47;3.30;;;;;;;16.04;70.92;94131.25;4976552;28;20499;-73
2023/06/04 04:38:44;;;;;;;3.58;2.83;;;;;;;15.82;71.00;94107.63;4977480;28;20525;-72
2023/06/04 04:41:11;;;;;;;4.63;4.10;;;;;;;15.54;72.65;94117.50;4975549;28;20711;-72
2023/06/04 04:43:39;;;;;;;5.55;3.92;;;;;;;15.57;73.02;94128.31;4978373;28;20022;-73
2023/06/04 04:46:07;;;;;;;3.75;3.30;;;;;;;15.44;73.63;94124.88;4975069;28;20038;-73
2023/06/04 04:48:33;;;;;;;6.90;3.67;;;;;;;15.73;72.74;94142.63;4977509;28;20041;-72
2023/06/04 04:50:58;;;;;;;4.22;3.80;;;;;;;15.75;72.31;94118.91;4975243;28;20479;-72
2023/06/04 04:53:24;;;;;;;4.20;3.78;;;;;;;15.10;74.61;94144.03;4977783;28;20076;-72
2023/06/04 04:55:49;;;;;;;5.38;3.85;;;;;;;15.10;75.27;94129.84;4974118;28;20056;-73
2023/06/04 04:58:15;;;;;;;5.60;4.70;;;;;;;15.49;74.02;94136.50;4976753;28;21044;-72
2023/06/04 05:00:41;;;;;;;6.18;3.97;;;;;;;15.59;73.18;94144.09;4974287;28;20041;-72
2023/06/04 05:03:06;;;;;;;7.80;4.30;;;;;;;15.26;73.99;94138.78;4976494;28;20037;-72
2023/06/04 05:05:32;;;;;;;4.40;3.97;;;;;;;15.11;74.95;94137.53;4974866;28;20038;-72
2023/06/04 05:07:58;;;;;;;4.63;4.22;;;;;;;15.36;73.96;94139.13;4977197;28;20027;-72
2023/06/04 05:10:23;;;;;;;5.57;4.53;;;;;;;15.50;73.47;94127.34;4974194;28;20041;-73
2023/06/04 05:12:52;;;;;;;8.57;4.20;;;;;;;15.62;72.02;94124.63;4976515;28;20076;-74
2023/06/04 05:15:18;;;;;;;5.13;4.43;;;;;;;15.53;72.87;94137.38;4975605;28;20509;-72
2023/06/04 05:17:43;;;;;;;4.85;4.35;;;;;;;15.73;72.80;94141.84;4978152;28;20041;-72
2023/06/04 05:20:11;;;;;;;5.18;4.68;;;;;;;15.78;71.87;94149.66;4973441;28;20050;-72
2023/06/04 05:22:37;;;;;;;7.82;5.00;;;;;;;15.80;72.17;94142.81;4966249;28;20410;-72
2023/06/04 05:25:02;;;;;;;7.88;5.70;;;;;;;15.22;74.01;94144.03;4976013;28;20034;-72
2023/06/04 05:27:27;;;;;;;6.28;5.68;;;;;;;15.15;74.99;94143.81;4965890;28;20531;-72
2023/06/04 05:29:53;;;;;;;6.88;5.80;;;;;;;15.20;74.52;94143.59;4993091;28;20129;-73
2023/06/04 05:32:19;;;;;;;11.23;5.38;;;;;;;15.08;74.64;94164.22;4976999;28;20450;-72
2023/06/04 05:34:44;;;;;;;7.68;5.70;;;;;;;15.15;74.82;94153.75;4978103;28;20852;-72
2023/06/04 05:37:09;;;;;;;9.20;5.57;;;;;;;15.22;73.89;94154.75;4974531;28;20521;-72
2023/06/04 05:39:35;;;;;;;8.30;5.97;;;;;;;15.39;74.22;94154.56;4976422;28;20038;-72
2023/06/04 05:42:01;;;;;;;9.68;5.50;;;;;;;15.50;73.36;94162.94;4974598;28;20039;-73
2023/06/04 05:44:27;;;;;;;9.80;5.63;;;;;;;15.46;72.84;94154.78;4975158;28;20053;-72
2023/06/04 05:46:52;;;;;;;11.82;5.90;;;;;;;15.23;72.88;94172.41;4973986;28;20276;-73
2023/06/04 05:49:19;;;;;;;8.38;6.50;;;;;;;14.95;74.28;94179.50;4976302;28;20080;-72
2023/06/04 05:51:45;;;;;;;8.35;7.05;;;;;;;14.85;75.42;94177.22;4974017;28;20505;-72
2023/06/04 05:54:10;;;;;;;12.13;7.57;;;;;;;13.90;75.41;94040.84;4975450;28;20050;-73
2023/06/04 05:56:35;;;;;;;9.35;6.85;;;;;;;14.94;75.72;94175.25;4974234;28;20050;-72
2023/06/04 05:59:01;;;;;;;8.85;6.55;;;;;;;14.77;75.37;94164.69;4974164;28;20388;-73
2023/06/04 06:01:26;;;;;;;12.40;7.70;;;;;;;14.88;75.45;94181.91;4974186;28;20034;-72
2023/06/04 06:03:51;;;;;;;10.15;7.50;;;;;;;14.68;76.77;94190.78;4977135;28;20057;-71
2023/06/04 06:06:18;;;;;;;8.52;7.60;;;;;;;14.65;77.81;94183.41;4972820;28;20022;-72
2023/06/04 06:08:43;;;;;;;11.20;7.90;;;;;;;14.96;76.71;94197.13;4974036;28;20038;-73
2023/06/04 06:11:09;;;;;;;7.95;7.10;;;;;;;15.13;76.19;94183.53;4974176;28;20081;-72
2023/06/04 06:13:34;;;;;;;12.23;7.45;;;;;;;15.28;74.59;94180.22;4975046;28;20014;-73
2023/06/04 06:15:59;;;;;;;8.88;7.43;;;;;;;15.22;75.66;94194.94;4975375;28;20074;-72
2023/06/04 06:18:25;;;;;;;10.98;7.40;;;;;;;15.23;75.90;94198.41;4975499;28;20050;-72
2023/06/04 06:20:50;;;;;;;10.38;8.38;;;;;;;15.20;75.70;94191.81;4974087;28;20037;-72
2023/06/04 06:23:16;;;;;;;19.08;8.45;;;;;;;15.49;74.85;94187.41;4973499;28;20476;-72
2023/06/04 06:25:45;;;;;;;15.35;7.95;;;;;;;15.52;74.58;94184.06;4973852;28;20029;-72
2023/06/04 06:28:10;;;;;;;10.75;8.43;;;;;;;15.67;73.54;94192.22;4973573;28;20052;-71
2023/06/04 06:30:36;;;;;;;11.45;8.15;;;;;;;15.90;72.95;94189.84;4975379;28;20479;-74
2023/06/04 06:33:01;;;;;;;12.38;7.55;;;;;;;15.48;73.04;94161.72;4974570;28;20050;-72
2023/06/04 06:35:26;;;;;;;11.57;8.65;;;;;;;14.99;75.35;94167.00;4972521;28;20521;-73
2023/06/04 06:37:52;;;;;;;11.50;8.27;;;;;;;15.20;75.58;94178.44;4963681;28;20054;-73
2023/06/04 06:40:17;;;;;;;10.40;8.25;;;;;;;15.63;74.75;94185.19;4965298;28;20034;-72
2023/06/04 06:42:48;;;;;;;14.32;8.73;;;;;;;15.96;73.09;94172.41;4965222;28;20916;-73
2023/06/04 06:45:14;;;;;;;11.15;8.30;;;;;;;15.43;72.87;94184.13;4963026;28;20628;-73
2023/06/04 06:47:39;;;;;;;12.88;9.25;;;;;;;15.37;74.48;94188.94;4957788;28;20045;-72
2023/06/04 06:50:05;;;;;;;11.07;8.75;;;;;;;15.55;73.42;94191.44;4965380;28;20117;-72
2023/06/04 06:52:31;;;;;;;9.63;8.02;;;;;;;15.16;74.38;94196.25;4961359;28;20334;-73
2023/06/04 06:54:56;;;;;;;16.55;9.45;;;;;;;14.90;75.99;94195.78;4964190;28;20038;-74
2023/06/04 06:57:21;;;;;;;12.43;8.77;;;;;;;14.81;75.66;94154.91;4961318;28;20500;-72
2023/06/04 06:59:47;;;;;;;9.55;7.80;;;;;;;14.98;75.91;94209.06;4966139;28;20041;-73
2023/06/04 07:02:12;;;;;;;20.10;8.60;;;;;;;14.78;76.94;94201.84;4962890;28;20289;-72
2023/06/04 07:04:38;;;;;;;11.00;8.25;;;;;;;15.09;76.60;94203.28;4963629;28;20022;-73
2023/06/04 07:07:03;;;;;;;16.35;8.77;;;;;;;15.06;75.67;94212.75;4962434;28;20377;-74
2023/06/04 07:09:29;;;;;;;14.38;8.68;;;;;;;15.00;75.15;94203.38;4962105;28;21004;-72
2023/06/04 07:11:54;;;;;;;8.90;8.02;;;;;;;15.27;75.33;94210.81;4963868;28;20504;-72
2023/06/04 07:14:20;;;;;;;12.18;8.15;;;;;;;15.17;75.06;94221.16;4963405;28;20053;-71
2023/06/04 07:16:45;;;;;;;10.73;7.65;;;;;;;15.10;74.92;94194.94;4964359;28;20034;-72
2023/06/04 07:19:11;;;;;;;12.98;8.25;;;;;;;15.15;74.89;94218.03;4964770;28;20104;-74
2023/06/04 07:21:36;;;;;;;11.38;7.90;;;;;;;15.03;75.11;94224.16;4961048;28;20049;-72
2023/06/04 07:24:01;;;;;;;10.77;7.75;;;;;;;15.12;74.78;94229.41;4964223;28;20038;-72
2023/06/04 07:26:30;;;;;;;8.98;7.20;;;;;;;15.02;75.01;94233.28;4961295;28;20050;-72
2023/06/04 07:28:56;;;;;;;9.00;7.13;;;;;;;15.08;75.54;94223.94;4963979;28;20019;-73
2023/06/04 07:31:22;;;;;;;11.40;7.80;;;;;;;15.17;75.41;94229.97;4963358;28;20042;-73
2023/06/04 07:33:47;;;;;;;12.95;8.48;;;;;;;15.19;75.79;94235.81;4964393;28;20097;-73
2023/06/04 07:36:13;;;;;;;13.70;8.85;;;;;;;15.21;76.50;94236.25;4962207;28;20038;-72
2023/06/04 07:38:39;;;;;;;10.98;7.90;;;;;;;15.26;75.34;94230.66;4955192;28;20100;-72
2023/06/04 07:41:05;;;;;;;10.13;8.93;;;;;;;15.67;75.92;94235.13;4962089;28;20023;-73
2023/06/04 07:43:33;;;;;;;13.93;9.77;;;;;;;15.36;75.89;94237.50;4963891;28;20605;-72
2023/06/04 07:45:59;;;;;;;11.85;8.98;;;;;;;15.85;74.61;94215.00;4971295;28;20448;-73
2023/06/04 07:48:30;;;;;;;17.13;9.40;;;;;;;15.95;73.07;94240.59;4962110;28;20034;-72
2023/06/04 07:50:59;;;;;;;15.45;11.63;;;;;;;15.97;72.28;94238.38;4959458;28;20042;-73
2023/06/04 07:53:25;;;;;;;11.82;9.30;;;;;;;16.27;72.45;94247.72;4963021;28;20045;-72
2023/06/04 07:55:51;;;;;;;12.93;10.65;;;;;;;15.76;73.14;94238.47;4945589;28;20042;-72
2023/06/04 07:58:16;;;;;;;13.50;10.07;;;;;;;15.78;72.54;94230.09;4957809;28;20152;-73
2023/06/04 08:00:41;;;;;;;12.35;9.32;;;;;;;16.01;73.06;94249.19;4959550;28;20208;-72
2023/06/04 08:03:07;;;;;;;14.25;10.00;;;;;;;16.20;71.81;94246.72;4954954;28;20026;-74
2023/06/04 08:05:33;;;;;;;16.02;10.02;;;;;;;16.11;73.58;94229.97;4953519;28;20038;-73
2023/06/04 08:07:59;;;;;;;11.40;9.98;;;;;;;16.16;73.26;94249.31;4958114;28;20038;-73
2023/06/04 08:10:24;;;;;;;17.73;10.95;;;;;;;16.27;72.82;94247.72;4958402;28;20034;-72
2023/06/04 08:12:50;;;;;;;14.85;10.32;;;;;;;16.41;72.10;94251.97;4955299;28;20039;-73
2023/06/04 08:15:15;;;;;;;13.48;9.85;;;;;;;16.09;72.92;94235.66;4955718;28;20088;-73
2023/06/04 08:17:41;;;;;;;13.85;10.32;;;;;;;16.02;73.44;94224.72;4960669;28;20033;-72
2023/06/04 08:20:06;;;;;;;15.40;10.50;;;;;;;16.27;72.91;94247.72;4957795;28;20480;-72
2023/06/04 08:22:32;;;;;;;18.05;12.77;;;;;;;15.90;73.04;94248.84;4959200;28;20053;-74
2023/06/04 08:24:57;;;;;;;17.58;12.43;;;;;;;16.21;73.03;94240.25;4950391;28;20249;-73
2023/06/04 08:27:23;;;;;;;17.40;11.25;;;;;;;16.78;72.01;94242.69;4954338;28;20050;-73
2023/06/04 08:29:48;;;;;;;16.17;12.00;;;;;;;16.40;70.69;94245.81;4958481;28;20041;-74
2023/06/04 08:32:14;;;;;;;16.77;11.68;;;;;;;16.64;70.27;94244.97;4964901;28;20045;-72
2023/06/04 08:34:39;;;;;;;18.65;11.30;;;;;;;16.26;69.95;94254.22;4975837;28;20045;-73
2023/06/04 08:37:05;;;;;;;16.92;12.50;;;;;;;16.42;70.65;94264.28;4965346;28;20097;-73
2023/06/04 08:39:31;;;;;;;15.65;12.43;;;;;;;16.54;69.99;94256.19;4965558;28;20041;-74
2023/06/04 08:42:01;;;;;;;15.63;11.57;;;;;;;16.41;68.13;94241.25;4961698;28;20042;-72
2023/06/04 08:44:27;;;;;;;15.00;12.25;;;;;;;16.45;68.57;94236.75;4965438;28;20045;-74
2023/06/04 08:46:56;;;;;;;16.48;11.80;;;;;;;16.33;68.51;94250.97;4974523;28;20282;-74
2023/06/04 08:49:22;;;;;;;18.38;12.15;;;;;;;16.67;70.53;94255.06;4962439;28;20095;-74
2023/06/04 08:51:47;;;;;;;16.80;12.25;;;;;;;16.67;67.74;94276.53;4963938;28;20441;-73
2023/06/04 08:54:13;;;;;;;17.58;12.35;;;;;;;16.65;67.34;94268.03;4965322;28;20372;-73
2023/06/04 08:56:38;;;;;;;13.88;10.93;;;;;;;16.80;67.52;94272.69;4962753;28;20034;-73
2023/06/04 08:59:07;;;;;;;15.82;10.82;;;;;;;16.43;69.05;94271.22;4964362;28;20030;-74
2023/06/04 09:01:34;;;;;;;15.10;10.73;;;;;;;16.46;68.40;94265.16;4961789;28;20027;-71
2023/06/04 09:04:03;;;;;;;13.25;10.85;;;;;;;16.21;68.32;94280.50;4958813;28;20030;-75
2023/06/04 09:06:29;;;;;;;13.93;10.52;;;;;;;16.67;68.11;94276.53;4966906;28;20468;-74
2023/06/04 09:08:59;;;;;;;13.60;10.02;;;;;;;16.76;67.79;94258.38;4962993;28;20467;-73
2023/06/04 09:11:37;;;;;;;12.93;8.80;;;;;;;16.70;66.99;94257.06;4962398;28;20038;-73
2023/06/04 09:14:08;;;;;;;16.23;10.32;;;;;;;16.25;68.61;94282.16;4964714;28;20841;-72
2023/06/04 09:16:43;;;;;;;16.13;10.98;;;;;;;16.25;68.41;94276.78;4963442;28;20043;-72
2023/06/04 09:19:08;;;;;;;14.65;10.07;;;;;;;16.22;67.43;94276.69;4965532;28;20304;-70
2023/06/04 09:21:34;;;;;;;11.82;10.55;;;;;;;16.20;67.27;94263.59;4960311;28;20818;-73
2023/06/04 09:23:59;;;;;;;14.98;10.10;;;;;;;16.48;67.41;94270.97;4976350;28;20281;-72
2023/06/04 09:26:25;;;;;;;21.98;10.93;;;;;;;16.18;67.72;94267.75;4965293;28;20062;-72
2023/06/04 09:28:52;;;;;;;15.15;10.30;;;;;;;16.50;69.07;94282.16;4963137;28;20035;-73
2023/06/04 09:31:20;;;;;;;18.38;12.07;;;;;;;16.52;68.69;94264.59;4982247;28;20374;-75
2023/06/04 09:33:48;;;;;;;15.07;11.13;;;;;;;16.75;67.29;94278.31;4964328;28;20035;-73
2023/06/04 09:36:13;;;;;;;16.58;10.43;;;;;;;16.51;67.17;94283.72;4962498;28;20026;-73
2023/06/04 09:38:39;;;;;;;13.82;8.82;;;;;;;16.20;68.47;94274.34;4963379;28;20034;-74
2023/06/04 09:41:11;;;;;;;13.20;10.07;;;;;;;16.28;68.03;94281.47;4964750;28;20034;-75
2023/06/04 09:43:37;;;;;;;17.05;10.98;;;;;;;16.33;68.73;94282.41;4954846;28;20119;-74
2023/06/04 09:46:13;;;;;;;14.45;10.02;;;;;;;16.53;67.53;94284.16;4977632;28;20038;-74
2023/06/04 09:48:40;;;;;;;12.70;8.90;;;;;;;16.47;66.94;94264.84;4966766;28;20030;-73
2023/06/04 09:51:18;;;;;;;14.02;10.32;;;;;;;16.38;67.89;94280.25;4965086;28;20018;-73
2023/06/04 09:53:53;;;;;;;14.63;10.27;;;;;;;16.77;67.97;94265.28;4964992;28;20042;-72
2023/06/04 09:56:19;;;;;;;12.85;10.55;;;;;;;16.82;68.31;94267.00;4964816;28;20035;-73
2023/06/04 09:58:46;;;;;;;15.00;10.30;;;;;;;16.94;66.91;94259.66;4964746;28;20069;-73
2023/06/04 10:01:13;;;;;;;14.50;11.02;;;;;;;16.67;66.41;94276.53;4966682;28;20143;-73
2023/06/04 10:03:45;;;;;;;15.82;10.50;;;;;;;17.02;66.64;94266.00;4978766;28;20038;-73
2023/06/04 10:06:14;;;;;;;16.65;11.07;;;;;;;17.03;66.30;94273.72;4965869;28;20030;-73
2023/06/04 10:08:42;;;;;;;13.88;10.82;;;;;;;17.03;65.81;94276.41;4966532;28;20626;-72
2023/06/04 10:11:10;;;;;;;15.27;10.90;;;;;;;17.33;66.79;94270.69;4967084;28;20046;-72
2023/06/04 10:13:47;;;;;;;18.38;12.05;;;;;;;17.65;65.05;94256.16;4965398;28;20161;-74
2023/06/04 10:16:13;;;;;;;18.83;10.70;;;;;;;17.85;63.66;94267.78;4967150;28;20069;-74
2023/06/04 10:18:39;;;;;;;15.30;12.05;;;;;;;17.82;63.49;94263.13;4968105;28;20778;-72
2023/06/04 10:21:06;;;;;;;13.95;10.75;;;;;;;17.87;63.00;94262.84;4980022;28;20141;-74
2023/06/04 10:23:31;;;;;;;17.95;11.25;;;;;;;17.65;63.80;94272.28;4967574;28;20517;-72
2023/06/04 10:25:57;;;;;;;11.98;9.88;;;;;;;17.58;63.69;94272.13;4965677;28;20038;-74
2023/06/04 10:28:23;;;;;;;12.05;10.20;;;;;;;17.55;62.95;94262.06;4966972;28;20053;-72
2023/06/04 10:30:50;;;;;;;14.57;9.85;;;;;;;17.53;62.93;94259.72;4962293;28;20030;-73
2023/06/04 10:33:18;;;;;;;15.32;10.63;;;;;;;17.69;62.64;94267.81;4965908;28;20022;-74
2023/06/04 10:35:43;;;;;;;12.88;10.68;;;;;;;17.52;63.29;94281.56;4963294;28;20088;-74
2023/06/04 10:38:11;;;;;;;13.98;10.48;;;;;;;17.77;61.71;94263.38;4962977;28;20369;-73
2023/06/04 10:40:37;;;;;;;13.68;10.15;;;;;;;17.67;62.13;94263.88;4965065;28;20049;-73
2023/06/04 10:43:08;;;;;;;13.45;10.00;;;;;;;17.78;62.38;94267.63;4956281;28;20038;-74
2023/06/04 10:45:33;;;;;;;13.52;10.10;;;;;;;18.24;62.61;94260.66;4962559;28;20823;-73
2023/06/04 10:48:06;;;;;;;12.07;9.00;;;;;;;18.30;60.87;94268.13;4961853;28;20034;-74
2023/06/04 10:50:33;;;;;;;11.27;8.63;;;;;;;17.98;60.63;94275.47;4954457;28;20046;-72
2023/06/04 10:53:02;;;;;;;13.10;10.07;;;;;;;17.36;62.27;94275.38;4961505;28;20053;-72
2023/06/04 10:55:29;;;;;;;13.05;10.07;;;;;;;17.56;61.48;94275.16;4960066;28;20034;-74
2023/06/04 10:57:58;;;;;;;12.20;9.38;;;;;;;17.42;62.97;94265.94;4959217;28;20104;-74
2023/06/04 11:00:41;;;;;;;12.68;9.65;;;;;;;17.31;63.23;94251.44;4965456;28;20427;-72
2023/06/04 11:03:07;;;;;;;13.65;9.77;;;;;;;17.35;63.00;94260.41;4960864;28;20042;-73
2023/06/04 11:05:34;;;;;;;12.95;10.00;;;;;;;17.13;65.42;94262.50;4964915;28;20134;-73
2023/06/04 11:08:00;;;;;;;12.45;10.35;;;;;;;17.46;66.00;94242.59;4962645;28;20039;-72
2023/06/04 11:10:33;;;;;;;16.45;11.32;;;;;;;17.75;64.65;94258.31;4964489;28;20035;-72
2023/06/04 11:12:58;;;;;;;12.07;10.25;;;;;;;17.76;64.48;94256.41;4958939;28;20046;-73
2023/06/04 11:15:24;;;;;;;11.90;10.65;;;;;;;18.04;64.41;94257.91;4965780;28;20495;-74
2023/06/04 11:17:53;;;;;;;13.85;10.25;;;;;;;18.40;62.05;94270.28;4964155;28;20050;-73
2023/06/04 11:20:20;;;;;;;12.75;11.15;;;;;;;18.60;62.44;94265.72;4964353;28;20042;-73
2023/06/04 11:22:57;;;;;;;14.07;9.45;;;;;;;18.58;61.48;94265.28;4963048;28;20936;-74
2023/06/04 11:25:24;;;;;;;19.08;9.57;;;;;;;18.12;62.42;94263.47;4964106;28;20414;-73